createdAt,value
2018-10-18T00:02:29.076Z,12.50
2018-10-18T00:06:02.325Z,12.50
2018-10-18T00:09:35.544Z,12.40
2018-10-18T00:13:08.795Z,12.40
2018-10-18T00:16:42.041Z,12.30
2018-10-18T00:20:16.251Z,12.20
2018-10-18T00:23:49.409Z,12.20
2018-10-18T00:27:22.621Z,12.20
2018-10-18T00:30:55.854Z,12.10
2018-10-18T00:34:29.084Z,12.10
2018-10-18T00:38:02.405Z,12.00
2018-10-18T00:41:35.557Z,12.00
2018-10-18T00:45:09.574Z,12.00
2018-10-18T00:48:42.808Z,12.10
2018-10-18T00:52:16.052Z,12.10
2018-10-18T00:55:49.273Z,12.00
2018-10-18T00:59:22.502Z,12.00
2018-10-18T01:02:55.735Z,12.00
2018-10-18T01:06:28.952Z,11.90
2018-10-18T01:10:02.232Z,11.90
2018-10-18T01:13:35.464Z,11.90
2018-10-18T01:17:08.687Z,11.90
2018-10-18T01:20:41.899Z,11.90
2018-10-18T01:24:15.170Z,11.90
2018-10-18T01:27:48.352Z,11.80
2018-10-18T01:31:21.576Z,11.70
2018-10-18T01:34:54.788Z,11.70
2018-10-18T01:38:28.032Z,11.70
2018-10-18T01:42:01.289Z,11.60
2018-10-18T01:45:34.491Z,11.60
2018-10-18T01:49:07.888Z,11.60
2018-10-18T01:52:41.123Z,11.60
2018-10-18T01:56:14.471Z,11.60
2018-10-18T01:59:47.592Z,11.60
2018-10-18T02:03:20.834Z,11.60
2018-10-18T02:06:54.049Z,11.50
2018-10-18T02:10:27.260Z,11.50
2018-10-18T02:14:00.488Z,11.50
2018-10-18T02:17:33.713Z,11.50
2018-10-18T02:21:07.273Z,11.50
2018-10-18T02:24:40.496Z,11.40
2018-10-18T02:28:13.728Z,11.40
2018-10-18T02:31:46.951Z,11.30
2018-10-18T02:35:20.177Z,11.30
2018-10-18T02:38:53.392Z,11.20
2018-10-18T02:42:26.626Z,11.20
2018-10-18T02:45:59.860Z,11.20
2018-10-18T02:49:33.090Z,11.10
2018-10-18T02:53:06.328Z,11.10
2018-10-18T02:56:39.561Z,11.10
2018-10-18T03:00:12.858Z,11.10
2018-10-18T03:03:46.060Z,11.10
2018-10-18T03:07:19.286Z,11.10
2018-10-18T03:10:52.512Z,11.10
2018-10-18T03:14:25.785Z,11.10
2018-10-18T03:17:59.007Z,11.10
2018-10-18T03:21:32.579Z,11.00
2018-10-18T03:25:07.077Z,11.00
2018-10-18T03:28:40.300Z,10.90
2018-10-18T03:32:13.537Z,10.90
2018-10-18T03:35:46.772Z,10.80
2018-10-18T03:39:20.003Z,10.80
2018-10-18T03:42:53.261Z,10.80
2018-10-18T03:46:26.488Z,10.80
2018-10-18T03:49:59.715Z,10.80
2018-10-18T03:53:32.945Z,10.90
2018-10-18T03:57:06.183Z,10.90
2018-10-18T04:00:39.413Z,10.80
2018-10-18T04:04:12.640Z,10.80
2018-10-18T04:07:45.908Z,10.70
2018-10-18T04:11:19.143Z,10.70
2018-10-18T04:14:52.386Z,10.60
2018-10-18T04:18:25.699Z,10.40
2018-10-18T04:21:58.847Z,10.40
2018-10-18T04:25:32.131Z,10.30
2018-10-18T04:29:05.332Z,10.30
2018-10-18T04:32:38.624Z,10.30
2018-10-18T04:36:11.897Z,10.40
2018-10-18T04:39:45.089Z,10.30
2018-10-18T04:43:18.559Z,10.30
2018-10-18T04:46:51.779Z,10.30
2018-10-18T04:50:25.029Z,10.30
2018-10-18T04:53:58.341Z,10.30
2018-10-18T04:57:31.680Z,10.30
2018-10-18T05:01:05.200Z,10.30
2018-10-18T05:04:38.789Z,10.30
2018-10-18T05:08:12.135Z,10.20
2018-10-18T05:11:45.369Z,10.20
2018-10-18T05:15:18.647Z,10.20
2018-10-18T05:18:51.921Z,10.20
2018-10-18T05:22:25.152Z,10.20
2018-10-18T05:25:58.381Z,10.20
2018-10-18T05:29:31.605Z,10.20
2018-10-18T05:33:05.090Z,10.20
2018-10-18T05:36:38.459Z,10.20
2018-10-18T05:40:11.818Z,10.20
2018-10-18T05:43:45.974Z,10.20
2018-10-18T05:47:19.461Z,10.20
2018-10-18T05:50:52.544Z,10.30
2018-10-18T05:54:25.771Z,10.30
2018-10-18T05:57:59.007Z,10.30
2018-10-18T06:01:32.557Z,10.30
2018-10-18T06:05:06.650Z,10.30
2018-10-18T06:08:40.536Z,10.30
2018-10-18T06:12:13.773Z,10.40
2018-10-18T06:15:46.999Z,10.40
2018-10-18T06:19:20.248Z,10.40
2018-10-18T06:22:53.488Z,10.40
2018-10-18T06:26:26.704Z,10.40
2018-10-18T06:29:59.928Z,10.40
2018-10-18T06:33:33.141Z,10.40
2018-10-18T06:37:06.416Z,10.40
2018-10-18T06:40:39.701Z,10.40
2018-10-18T06:44:12.930Z,10.40
2018-10-18T06:47:46.265Z,10.40
2018-10-18T06:51:19.391Z,10.30
2018-10-18T06:54:52.638Z,10.40
2018-10-18T06:58:25.843Z,10.40
2018-10-18T07:01:59.068Z,10.40
2018-10-18T07:05:32.302Z,10.50
2018-10-18T07:09:09.141Z,10.60
2018-10-18T07:12:42.760Z,10.70
2018-10-18T07:16:16.037Z,10.80
2018-10-18T07:19:49.380Z,11.00
2018-10-18T07:23:22.596Z,11.00
2018-10-18T07:26:56.286Z,11.10
2018-10-18T07:30:29.515Z,11.20
2018-10-18T07:34:02.728Z,11.30
2018-10-18T07:37:35.968Z,11.50
2018-10-18T07:41:09.208Z,11.60
2018-10-18T07:44:42.425Z,11.80
2018-10-18T07:48:15.748Z,11.80
2018-10-18T07:51:48.914Z,11.90
2018-10-18T07:55:22.133Z,11.90
2018-10-18T07:58:55.357Z,12.00
2018-10-18T08:02:28.647Z,12.00
2018-10-18T08:06:01.870Z,12.00
2018-10-18T08:09:35.100Z,12.00
2018-10-18T08:13:08.372Z,12.00
2018-10-18T08:16:41.589Z,12.00
2018-10-18T08:20:15.192Z,12.00
2018-10-18T08:23:48.395Z,12.10
2018-10-18T08:27:21.628Z,12.00
2018-10-18T08:30:55.124Z,12.00
2018-10-18T08:34:28.417Z,12.00
2018-10-18T08:38:01.786Z,12.00
2018-10-18T08:41:34.876Z,12.10
2018-10-18T08:45:09.107Z,12.20
2018-10-18T08:48:42.367Z,12.30
2018-10-18T08:52:15.643Z,12.30
2018-10-18T08:55:48.873Z,12.40
2018-10-18T08:59:22.159Z,12.50
2018-10-18T09:02:55.332Z,12.50
2018-10-18T09:06:28.552Z,12.60
2018-10-18T09:10:01.786Z,12.80
2018-10-18T09:13:35.015Z,12.90
2018-10-18T09:17:08.241Z,13.10
2018-10-18T09:20:41.471Z,13.30
2018-10-18T09:24:14.689Z,13.50
2018-10-18T09:27:47.911Z,13.60
2018-10-18T09:31:21.137Z,13.80
2018-10-18T09:34:54.359Z,13.90
2018-10-18T09:38:27.654Z,14.00
2018-10-18T09:42:00.824Z,14.20
2018-10-18T09:45:34.047Z,14.40
2018-10-18T09:49:07.369Z,14.50
2018-10-18T09:52:40.565Z,14.70
2018-10-18T09:56:13.851Z,14.80
2018-10-18T09:59:47.053Z,14.90
2018-10-18T10:03:20.740Z,15.10
2018-10-18T10:06:53.980Z,15.30
2018-10-18T10:10:27.196Z,15.40
2018-10-18T10:14:00.424Z,15.60
2018-10-18T10:17:33.725Z,15.70
2018-10-18T10:21:06.924Z,16.00
2018-10-18T10:24:40.180Z,16.10
2018-10-18T10:28:13.387Z,16.30
2018-10-18T10:31:46.613Z,16.40
2018-10-18T10:35:19.838Z,16.50
2018-10-18T10:38:53.133Z,16.70
2018-10-18T10:42:26.321Z,16.90
2018-10-18T10:45:59.536Z,17.00
2018-10-18T10:49:32.752Z,17.10
2018-10-18T10:53:06.088Z,17.30
2018-10-18T10:56:39.317Z,17.40
2018-10-18T11:00:12.609Z,17.60
2018-10-18T11:03:46.096Z,17.70
2018-10-18T11:07:19.353Z,17.90
2018-10-18T11:10:52.896Z,18.00
2018-10-18T11:14:26.117Z,18.10
2018-10-18T11:17:59.354Z,18.20
2018-10-18T11:21:32.640Z,18.40
2018-10-18T11:25:06.149Z,18.50
2018-10-18T11:28:39.378Z,18.50
2018-10-18T11:32:12.693Z,18.60
2018-10-18T11:35:45.872Z,18.70
2018-10-18T11:39:19.103Z,18.80
2018-10-18T11:42:52.361Z,18.90
2018-10-18T11:46:25.592Z,19.00
2018-10-18T11:49:58.803Z,19.10
2018-10-18T11:53:32.058Z,19.20
2018-10-18T11:57:05.469Z,19.30
2018-10-18T12:00:38.715Z,19.30
2018-10-18T12:04:11.920Z,19.40
2018-10-18T12:07:45.153Z,19.40
2018-10-18T12:11:18.386Z,19.50
2018-10-18T12:14:51.600Z,19.60
2018-10-18T12:18:24.833Z,19.60
2018-10-18T12:21:58.087Z,19.70
2018-10-18T12:25:31.300Z,19.70
2018-10-18T12:29:04.544Z,19.70
2018-10-18T12:32:38.116Z,19.80
2018-10-18T12:36:11.349Z,19.80
2018-10-18T12:39:44.767Z,19.70
2018-10-18T12:43:17.815Z,19.70
2018-10-18T12:46:51.039Z,19.70
2018-10-18T12:50:24.266Z,19.80
2018-10-18T12:53:57.476Z,19.80
2018-10-18T12:57:30.700Z,19.80
2018-10-18T13:01:03.947Z,19.80
2018-10-18T13:04:37.511Z,19.80
2018-10-18T13:08:10.804Z,19.80
2018-10-18T13:11:43.981Z,19.80
2018-10-18T13:15:17.208Z,19.80
2018-10-18T13:18:50.429Z,19.80
2018-10-18T13:22:23.659Z,19.90
2018-10-18T13:25:56.940Z,19.90
2018-10-18T13:29:30.129Z,19.90
2018-10-18T13:33:03.345Z,19.90
2018-10-18T13:36:36.572Z,19.90
2018-10-18T13:40:09.805Z,19.90
2018-10-18T13:43:43.019Z,19.80
2018-10-18T13:47:16.255Z,19.90
2018-10-18T13:50:49.489Z,19.90
2018-10-18T13:54:22.716Z,19.90
2018-10-18T13:57:56.307Z,20.00
2018-10-18T14:01:29.526Z,20.00
2018-10-18T14:05:02.824Z,20.00
2018-10-18T14:08:36.080Z,20.00
2018-10-18T14:12:09.228Z,20.00
2018-10-18T14:15:42.460Z,20.00
2018-10-18T14:19:15.702Z,19.90
2018-10-18T14:22:48.915Z,19.90
2018-10-18T14:26:22.265Z,19.90
2018-10-18T14:29:55.380Z,20.00
2018-10-18T14:33:28.600Z,20.00
2018-10-18T14:37:01.814Z,20.10
2018-10-18T14:40:35.052Z,20.20
2018-10-18T14:44:08.301Z,20.20
2018-10-18T14:47:41.619Z,20.40
2018-10-18T14:51:14.781Z,20.50
2018-10-18T14:54:48.007Z,20.60
2018-10-18T14:58:21.227Z,20.60
2018-10-18T15:01:54.466Z,20.60
2018-10-18T15:05:27.695Z,20.50
2018-10-18T15:09:00.951Z,20.40
2018-10-18T15:12:34.292Z,20.20
2018-10-18T15:16:07.416Z,20.10
2018-10-18T15:19:40.636Z,20.00
2018-10-18T15:23:13.939Z,19.80
2018-10-18T15:26:47.305Z,19.70
2018-10-18T15:30:20.365Z,19.60
2018-10-18T15:33:53.580Z,19.50
2018-10-18T15:37:26.792Z,19.50
2018-10-18T15:41:00.076Z,19.40
2018-10-18T15:44:33.346Z,19.30
2018-10-18T15:48:06.561Z,19.30
2018-10-18T15:51:39.798Z,19.30
2018-10-18T15:55:13.026Z,19.30
2018-10-18T15:58:46.252Z,19.30
2018-10-18T16:02:19.498Z,19.30
2018-10-18T16:05:52.728Z,19.20
2018-10-18T16:09:26.048Z,19.20
2018-10-18T16:12:59.357Z,19.10
2018-10-18T16:16:32.590Z,19.00
2018-10-18T16:20:07.335Z,18.90
2018-10-18T16:23:40.444Z,18.80
2018-10-18T16:27:13.668Z,18.70
2018-10-18T16:30:46.909Z,18.60
2018-10-18T16:34:20.123Z,18.50
2018-10-18T16:37:53.782Z,18.40
2018-10-18T16:41:27.245Z,18.30
2018-10-18T16:45:00.311Z,18.20
2018-10-18T16:48:33.536Z,18.20
2018-10-18T16:52:06.839Z,18.10
2018-10-18T16:55:40.017Z,18.00
2018-10-18T16:59:13.251Z,17.90
2018-10-18T17:02:46.473Z,17.90
2018-10-18T17:06:19.727Z,17.80
2018-10-18T17:09:52.995Z,17.70
2018-10-18T17:13:26.224Z,17.60
2018-10-18T17:16:59.527Z,17.50
2018-10-18T17:20:32.989Z,17.50
2018-10-18T17:24:06.261Z,17.40
2018-10-18T17:27:39.486Z,17.30
2018-10-18T17:31:12.692Z,17.30
2018-10-18T17:34:45.933Z,17.20
2018-10-18T17:38:19.269Z,17.10
2018-10-18T17:41:52.444Z,17.10
2018-10-18T17:45:25.691Z,17.00
2018-10-18T17:48:58.946Z,16.90
2018-10-18T17:52:32.358Z,16.90
2018-10-18T17:56:05.976Z,16.80
2018-10-18T17:59:39.213Z,16.70
2018-10-18T18:03:12.784Z,16.70
2018-10-18T18:06:46.053Z,16.60
2018-10-18T18:10:19.516Z,16.60
2018-10-18T18:13:52.779Z,16.50
2018-10-18T18:17:26.037Z,16.50
2018-10-18T18:20:59.265Z,16.40
2018-10-18T18:24:32.509Z,16.30
2018-10-18T18:28:05.749Z,16.30
2018-10-18T18:31:38.985Z,16.20
2018-10-18T18:35:12.237Z,16.10
2018-10-18T18:38:45.525Z,16.10
2018-10-18T18:42:18.762Z,16.00
2018-10-18T18:45:51.995Z,16.00
2018-10-18T18:49:25.223Z,15.90
2018-10-18T18:52:58.542Z,15.90
2018-10-18T18:56:31.723Z,15.90
2018-10-18T19:00:06.159Z,15.80
2018-10-18T19:03:39.355Z,15.80
2018-10-18T19:07:14.113Z,15.70
2018-10-18T19:10:47.631Z,15.70
2018-10-18T19:14:21.087Z,15.70
2018-10-18T19:17:54.396Z,15.70
2018-10-18T19:21:27.695Z,15.60
2018-10-18T19:25:00.929Z,15.60
2018-10-18T19:28:34.388Z,15.50
2018-10-18T19:32:07.661Z,15.50
2018-10-18T19:35:40.844Z,15.40
2018-10-18T19:39:14.080Z,15.40
2018-10-18T19:42:47.308Z,15.30
2018-10-18T19:46:20.691Z,15.20
2018-10-18T19:49:53.890Z,15.20
2018-10-18T19:53:27.177Z,15.10
2018-10-18T19:57:00.417Z,15.10
2018-10-18T20:00:33.664Z,15.00
2018-10-18T20:04:06.912Z,14.90
2018-10-18T20:07:40.191Z,14.90
2018-10-18T20:11:13.433Z,14.90
2018-10-18T20:14:46.680Z,14.90
2018-10-18T20:18:19.917Z,14.90
2018-10-18T20:21:53.179Z,14.90
2018-10-18T20:25:26.599Z,14.90
2018-10-18T20:28:59.729Z,14.80
2018-10-18T20:32:33.023Z,14.80
2018-10-18T20:36:06.245Z,14.80
2018-10-18T20:39:39.679Z,14.70
2018-10-18T20:43:12.832Z,14.70
2018-10-18T20:46:46.179Z,14.70
2018-10-18T20:50:19.387Z,14.60
2018-10-18T20:53:52.659Z,14.60
2018-10-18T20:57:26.009Z,14.50
2018-10-18T21:00:59.867Z,14.50
2018-10-18T21:04:33.125Z,14.40
2018-10-18T21:08:06.351Z,14.40
2018-10-18T21:11:39.997Z,14.40
2018-10-18T21:15:13.324Z,14.30
2018-10-18T21:18:46.497Z,14.30
2018-10-18T21:22:19.745Z,14.20
2018-10-18T21:25:52.996Z,14.10
2018-10-18T21:29:26.287Z,14.10
2018-10-18T21:32:59.657Z,14.00
2018-10-18T21:36:32.860Z,14.00
2018-10-18T21:40:06.125Z,13.90
2018-10-18T21:43:39.369Z,13.80
2018-10-18T21:47:12.772Z,13.80
2018-10-18T21:50:45.962Z,13.90
2018-10-18T21:54:19.289Z,13.80
2018-10-18T21:57:52.692Z,13.70
2018-10-18T22:01:25.908Z,13.70
2018-10-18T22:04:59.178Z,13.70
2018-10-18T22:08:32.414Z,13.70
2018-10-18T22:12:05.942Z,13.60
2018-10-18T22:15:39.179Z,13.60
2018-10-18T22:19:13.341Z,13.50
2018-10-18T22:22:46.568Z,13.50
2018-10-18T22:26:19.871Z,13.50
2018-10-18T22:29:53.108Z,13.50
2018-10-18T22:33:26.350Z,13.50
2018-10-18T22:36:59.589Z,13.50
2018-10-18T22:40:32.832Z,13.50
2018-10-18T22:44:06.516Z,13.40
2018-10-18T22:47:39.752Z,13.40
2018-10-18T22:51:12.997Z,13.30
2018-10-18T22:54:46.221Z,13.30
2018-10-18T22:58:19.472Z,13.20
2018-10-18T23:01:52.716Z,13.20
2018-10-18T23:05:25.928Z,13.20
2018-10-18T23:08:59.187Z,13.20
2018-10-18T23:12:32.431Z,13.20
2018-10-18T23:16:05.714Z,13.20
2018-10-18T23:19:38.936Z,13.20
2018-10-18T23:23:12.240Z,13.10
2018-10-18T23:26:45.436Z,13.10
2018-10-18T23:30:18.661Z,13.10
2018-10-18T23:33:51.937Z,13.00
2018-10-18T23:37:25.173Z,13.00
2018-10-18T23:40:58.421Z,13.00
2018-10-18T23:44:31.636Z,13.00
2018-10-18T23:48:05.184Z,13.00
2018-10-18T23:51:38.419Z,13.00
2018-10-18T23:55:11.644Z,12.90
2018-10-18T23:58:44.883Z,12.90
